Time,TemperatureF,DewpointF,PressureIn,WindDirection,WindDirectionDegrees,WindSpeedMPH,WindSpeedGustMPH,Humidity,HourlyPrecipIn,Conditions,Clouds,dailyrainin,SoftwareType,DateUTC
2013-03-23 00:00:00,24.4,17.9,30.04,WSW,246,0.0,2.0,76,0.00,,,0.00,Wunderground v.1.15,2013-03-23 04:00:00,
2013-03-23 00:01:00,24.4,17.9,30.04,WSW,246,0.0,2.0,76,0.00,,,0.00,Wunderground v.1.15,2013-03-23 04:01:00,
2013-03-23 00:04:00,24.3,17.8,30.04,WSW,246,0.0,2.0,76,0.00,,,0.00,Wunderground v.1.15,2013-03-23 04:04:00,
2013-03-23 00:09:00,24.2,18.0,30.04,WSW,246,0.0,2.0,77,0.00,,,0.00,Wunderground v.1.15,2013-03-23 04:09:00,
2013-03-23 00:11:00,24.1,17.9,30.04,WSW,246,0.0,2.0,77,0.00,,,0.00,Wunderground v.1.15,2013-03-23 04:11:00,
2013-03-23 00:16:00,24.0,18.1,30.04,WSW,246,0.0,2.0,78,0.00,,,0.00,Wunderground v.1.15,2013-03-23 04:16:00,
2013-03-23 00:22:00,23.9,18.3,30.04,WSW,246,0.0,2.0,79,0.00,,,0.00,Wunderground v.1.15,2013-03-23 04:22:00,
2013-03-23 00:27:00,23.9,18.6,30.04,WSW,246,0.0,2.0,80,0.00,,,0.00,Wunderground v.1.15,2013-03-23 04:27:00,
2013-03-23 00:33:00,23.9,18.6,30.04,WSW,246,0.0,2.0,80,0.00,,,0.00,Wunderground v.1.15,2013-03-23 04:33:00,
2013-03-23 00:38:00,23.7,18.4,30.04,WSW,246,0.0,2.0,80,0.00,,,0.00,Wunderground v.1.15,2013-03-23 04:38:00,
2013-03-23 00:44:00,23.5,18.5,30.04,WSW,246,0.0,2.0,81,0.00,,,0.00,Wunderground v.1.15,2013-03-23 04:44:00,
2013-03-23 00:49:00,23.4,18.4,30.04,WSW,246,0.0,2.0,81,0.00,,,0.00,Wunderground v.1.15,2013-03-23 04:49:00,
2013-03-23 00:54:00,23.3,18.3,30.05,WSW,246,0.0,2.0,81,0.00,,,0.00,Wunderground v.1.15,2013-03-23 04:54:00,
2013-03-23 00:59:00,23.1,18.1,30.05,WSW,246,0.0,2.0,81,0.00,,,0.00,Wunderground v.1.15,2013-03-23 04:59:00,
2013-03-23 01:05:00,23.0,18.0,30.05,WSW,246,0.0,2.0,81,0.00,,,0.00,Wunderground v.1.15,2013-03-23 05:05:00,
2013-03-23 01:11:00,23.1,18.1,30.05,WSW,246,0.0,2.0,81,0.00,,,0.00,Wunderground v.1.15,2013-03-23 05:11:00,
2013-03-23 01:16:00,23.1,18.1,30.05,WSW,246,0.0,2.0,81,0.00,,,0.00,Wunderground v.1.15,2013-03-23 05:16:00,
2013-03-23 01:22:00,23.1,18.4,30.05,WSW,246,0.0,2.0,82,0.00,,,0.00,Wunderground v.1.15,2013-03-23 05:22:00,
2013-03-23 01:27:00,23.0,18.3,30.05,WSW,246,0.0,2.0,82,0.00,,,0.00,Wunderground v.1.15,2013-03-23 05:27:00,
2013-03-23 01:33:00,22.8,17.8,30.04,WSW,246,0.0,2.0,81,0.00,,,0.00,Wunderground v.1.15,2013-03-23 05:33:00,
2013-03-23 01:38:00,22.5,17.5,30.04,WSW,246,0.0,2.0,81,0.00,,,0.00,Wunderground v.1.15,2013-03-23 05:38:00,
2013-03-23 01:44:00,22.2,17.3,30.04,WSW,246,0.0,2.0,81,0.00,,,0.00,Wunderground v.1.15,2013-03-23 05:44:00,
2013-03-23 01:49:00,22.1,17.4,30.04,WSW,246,0.0,2.0,82,0.00,,,0.00,Wunderground v.1.15,2013-03-23 05:49:00,
2013-03-23 01:54:00,22.1,17.4,30.04,WSW,246,0.0,2.0,82,0.00,,,0.00,Wunderground v.1.15,2013-03-23 05:54:00,
2013-03-23 01:59:00,22.0,17.3,30.04,WSW,246,0.0,2.0,82,0.00,,,0.00,Wunderground v.1.15,2013-03-23 05:59:00,
2013-03-23 02:05:00,21.9,17.2,30.04,WSW,246,0.0,2.0,82,0.00,,,0.00,Wunderground v.1.15,2013-03-23 06:05:00,
2013-03-23 02:10:00,21.8,17.2,30.04,WSW,246,0.0,2.0,82,0.00,,,0.00,Wunderground v.1.15,2013-03-23 06:10:00,
2013-03-23 02:16:00,21.8,17.2,30.04,WSW,246,0.0,2.0,82,0.00,,,0.00,Wunderground v.1.15,2013-03-23 06:16:00,
2013-03-23 02:21:00,21.9,17.5,30.04,WSW,246,0.0,2.0,83,0.00,,,0.00,Wunderground v.1.15,2013-03-23 06:21:00,
2013-03-23 02:27:00,22.0,17.6,30.03,WSW,246,0.0,2.0,83,0.00,,,0.00,Wunderground v.1.15,2013-03-23 06:27:00,
2013-03-23 02:33:00,22.0,17.6,30.04,WSW,246,0.0,2.0,83,0.00,,,0.00,Wunderground v.1.15,2013-03-23 06:33:00,
2013-03-23 02:39:00,21.9,17.8,30.03,WSW,246,0.0,2.0,84,0.00,,,0.00,Wunderground v.1.15,2013-03-23 06:39:00,
2013-03-23 02:44:00,21.9,17.8,30.03,WSW,246,0.0,2.0,84,0.00,,,0.00,Wunderground v.1.15,2013-03-23 06:44:00,
2013-03-23 02:49:00,21.8,17.7,30.03,WSW,246,0.0,2.0,84,0.00,,,0.00,Wunderground v.1.15,2013-03-23 06:49:00,
2013-03-23 02:54:00,21.6,17.5,30.03,WSW,246,0.0,2.0,84,0.00,,,0.00,Wunderground v.1.15,2013-03-23 06:54:00,
2013-03-23 02:59:00,21.4,17.0,30.03,WSW,246,0.0,2.0,83,0.00,,,0.00,Wunderground v.1.15,2013-03-23 06:59:00,
2013-03-23 03:04:00,21.2,17.1,30.02,WSW,246,0.0,2.0,84,0.00,,,0.00,Wunderground v.1.15,2013-03-23 07:04:00,
2013-03-23 03:10:00,21.1,17.0,30.03,WSW,246,0.0,2.0,84,0.00,,,0.00,Wunderground v.1.15,2013-03-23 07:10:00,
2013-03-23 03:15:00,20.9,16.8,30.03,WSW,246,0.0,2.0,84,0.00,,,0.00,Wunderground v.1.15,2013-03-23 07:15:00,
2013-03-23 03:20:00,20.8,16.7,30.03,WSW,246,0.0,2.0,84,0.00,,,0.00,Wunderground v.1.15,2013-03-23 07:20:00,
2013-03-23 03:26:00,20.9,16.8,30.03,WSW,246,0.0,2.0,84,0.00,,,0.00,Wunderground v.1.15,2013-03-23 07:26:00,
2013-03-23 03:31:00,20.9,16.8,30.03,WSW,246,0.0,2.0,84,0.00,,,0.00,Wunderground v.1.15,2013-03-23 07:31:00,
2013-03-23 03:37:00,20.8,16.7,30.03,WSW,246,0.0,2.0,84,0.00,,,0.00,Wunderground v.1.15,2013-03-23 07:37:00,
2013-03-23 03:43:00,20.7,16.6,30.03,WSW,246,0.0,2.0,84,0.00,,,0.00,Wunderground v.1.15,2013-03-23 07:43:00,
2013-03-23 03:48:00,20.6,16.5,30.03,WSW,246,0.0,2.0,84,0.00,,,0.00,Wunderground v.1.15,2013-03-23 07:48:00,
2013-03-23 03:54:00,20.7,16.9,30.03,WSW,246,0.0,2.0,85,0.00,,,0.00,Wunderground v.1.15,2013-03-23 07:54:00,
2013-03-23 04:00:00,21.0,17.5,30.03,WSW,246,0.0,2.0,86,0.00,,,0.00,Wunderground v.1.15,2013-03-23 08:00:00,
2013-03-23 04:05:00,21.1,17.6,30.03,WSW,246,0.0,2.0,86,0.00,,,0.00,Wunderground v.1.15,2013-03-23 08:05:00,
2013-03-23 04:10:00,21.1,17.6,30.03,WSW,246,0.0,2.0,86,0.00,,,0.00,Wunderground v.1.15,2013-03-23 08:10:00,
2013-03-23 04:15:00,21.2,17.7,30.03,WSW,246,0.0,2.0,86,0.00,,,0.00,Wunderground v.1.15,2013-03-23 08:15:00,
2013-03-23 04:21:00,21.1,17.6,30.03,WSW,246,0.0,2.0,86,0.00,,,0.00,Wunderground v.1.15,2013-03-23 08:21:00,
2013-03-23 04:27:00,21.0,17.5,30.03,WSW,246,0.0,2.0,86,0.00,,,0.00,Wunderground v.1.15,2013-03-23 08:27:00,
2013-03-23 04:32:00,20.8,17.3,30.03,WSW,246,0.0,2.0,86,0.00,,,0.00,Wunderground v.1.15,2013-03-23 08:32:00,
2013-03-23 04:38:00,20.8,17.3,30.03,WSW,246,0.0,2.0,86,0.00,,,0.00,Wunderground v.1.15,2013-03-23 08:38:00,
2013-03-23 04:43:00,20.7,17.2,30.03,WSW,246,0.0,2.0,86,0.00,,,0.00,Wunderground v.1.15,2013-03-23 08:43:00,
2013-03-23 04:48:00,20.5,17.0,30.03,WSW,246,0.0,2.0,86,0.00,,,0.00,Wunderground v.1.15,2013-03-23 08:48:00,
2013-03-23 04:54:00,20.4,16.9,30.03,WSW,246,0.0,2.0,86,0.00,,,0.00,Wunderground v.1.15,2013-03-23 08:54:00,
2013-03-23 04:59:00,20.3,16.8,30.03,WSW,246,0.0,2.0,86,0.00,,,0.00,Wunderground v.1.15,2013-03-23 08:59:00,
2013-03-23 05:05:00,20.1,16.6,30.03,WSW,246,0.0,2.0,86,0.00,,,0.00,Wunderground v.1.15,2013-03-23 09:05:00,
2013-03-23 05:12:00,19.9,16.4,30.02,WSW,246,0.0,2.0,86,0.00,,,0.00,Wunderground v.1.15,2013-03-23 09:12:00,
2013-03-23 05:17:00,19.8,16.3,30.02,WSW,246,0.0,2.0,86,0.00,,,0.00,Wunderground v.1.15,2013-03-23 09:17:00,
2013-03-23 05:23:00,19.7,16.2,30.02,WSW,246,0.0,2.0,86,0.00,,,0.00,Wunderground v.1.15,2013-03-23 09:23:00,
2013-03-23 05:28:00,19.7,16.2,30.02,WSW,246,0.0,2.0,86,0.00,,,0.00,Wunderground v.1.15,2013-03-23 09:28:00,
2013-03-23 05:34:00,19.7,16.5,30.02,WSW,246,0.0,2.0,87,0.00,,,0.00,Wunderground v.1.15,2013-03-23 09:34:00,
2013-03-23 05:40:00,20.0,16.8,30.02,WSW,246,0.0,2.0,87,0.00,,,0.00,Wunderground v.1.15,2013-03-23 09:40:00,
2013-03-23 05:45:00,20.2,17.0,30.02,WSW,246,0.0,2.0,87,0.00,,,0.00,Wunderground v.1.15,2013-03-23 09:45:00,
2013-03-23 05:51:00,20.3,17.0,30.02,WSW,246,0.0,2.0,87,0.00,,,0.00,Wunderground v.1.15,2013-03-23 09:51:00,
2013-03-23 05:56:00,20.3,17.0,30.03,WSW,246,0.0,2.0,87,0.00,,,0.00,Wunderground v.1.15,2013-03-23 09:56:00,
2013-03-23 06:02:00,20.2,17.0,30.02,WSW,246,0.0,2.0,87,0.00,,,0.00,Wunderground v.1.15,2013-03-23 10:02:00,
2013-03-23 06:08:00,20.2,17.0,30.02,WSW,246,0.0,2.0,87,0.00,,,0.00,Wunderground v.1.15,2013-03-23 10:08:00,
2013-03-23 06:13:00,20.2,17.0,30.02,WSW,246,0.0,2.0,87,0.00,,,0.00,Wunderground v.1.15,2013-03-23 10:13:00,
2013-03-23 06:18:00,20.2,17.0,30.02,WSW,246,0.0,2.0,87,0.00,,,0.00,Wunderground v.1.15,2013-03-23 10:18:00,
2013-03-23 06:24:00,20.0,16.8,30.03,WSW,246,0.0,2.0,87,0.00,,,0.00,Wunderground v.1.15,2013-03-23 10:24:00,
2013-03-23 06:29:00,19.9,16.7,30.03,WSW,246,0.0,2.0,87,0.00,,,0.00,Wunderground v.1.15,2013-03-23 10:29:00,
2013-03-23 06:35:00,19.8,16.6,30.03,WSW,246,0.0,2.0,87,0.00,,,0.00,Wunderground v.1.15,2013-03-23 10:35:00,
2013-03-23 06:40:00,19.7,16.5,30.03,WSW,246,0.0,2.0,87,0.00,,,0.00,Wunderground v.1.15,2013-03-23 10:40:00,
2013-03-23 06:45:00,19.8,16.6,30.03,WSW,246,0.0,2.0,87,0.00,,,0.00,Wunderground v.1.15,2013-03-23 10:45:00,
2013-03-23 06:52:00,19.9,16.7,30.03,WSW,246,0.0,2.0,87,0.00,,,0.00,Wunderground v.1.15,2013-03-23 10:52:00,
2013-03-23 06:57:00,19.8,16.6,30.03,WSW,246,0.0,2.0,87,0.00,,,0.00,Wunderground v.1.15,2013-03-23 10:57:00,
2013-03-23 07:02:00,19.8,16.6,30.04,WSW,246,0.0,2.0,87,0.00,,,0.00,Wunderground v.1.15,2013-03-23 11:02:00,
2013-03-23 07:08:00,19.7,16.5,30.04,WSW,246,0.0,2.0,87,0.00,,,0.00,Wunderground v.1.15,2013-03-23 11:08:00,
2013-03-23 07:14:00,19.8,16.6,30.04,WSW,246,0.0,2.0,87,0.00,,,0.00,Wunderground v.1.15,2013-03-23 11:14:00,
2013-03-23 07:19:00,19.7,16.5,30.04,WSW,246,0.0,2.0,87,0.00,,,0.00,Wunderground v.1.15,2013-03-23 11:19:00,
2013-03-23 07:25:00,19.8,16.8,30.04,WSW,246,0.0,2.0,88,0.00,,,0.00,Wunderground v.1.15,2013-03-23 11:25:00,
2013-03-23 07:30:00,19.8,16.8,30.04,WSW,246,0.0,2.0,88,0.00,,,0.00,Wunderground v.1.15,2013-03-23 11:30:00,
2013-03-23 07:36:00,19.8,16.6,30.04,WSW,246,0.0,2.0,87,0.00,,,0.00,Wunderground v.1.15,2013-03-23 11:36:00,
2013-03-23 07:41:00,19.8,16.8,30.04,WSW,246,0.0,2.0,88,0.00,,,0.00,Wunderground v.1.15,2013-03-23 11:41:00,
2013-03-23 07:46:00,19.8,16.8,30.05,WSW,246,0.0,2.0,88,0.00,,,0.00,Wunderground v.1.15,2013-03-23 11:46:00,
2013-03-23 07:52:00,20.0,17.0,30.05,WSW,246,0.0,2.0,88,0.00,,,0.00,Wunderground v.1.15,2013-03-23 11:52:00,
2013-03-23 07:58:00,20.3,17.3,30.05,WSW,246,0.0,2.0,88,0.00,,,0.00,Wunderground v.1.15,2013-03-23 11:58:00,
2013-03-23 08:03:00,20.8,17.8,30.05,WSW,246,0.0,2.0,88,0.00,,,0.00,Wunderground v.1.15,2013-03-23 12:03:00,
2013-03-23 08:08:00,21.6,18.9,30.05,WSW,246,0.0,2.0,89,0.00,,,0.00,Wunderground v.1.15,2013-03-23 12:08:00,
2013-03-23 08:13:00,22.5,19.7,30.06,WSW,246,0.0,2.0,89,0.00,,,0.00,Wunderground v.1.15,2013-03-23 12:13:00,
2013-03-23 08:19:00,23.5,20.7,30.06,WSW,249,0.0,2.0,89,0.00,,,0.00,Wunderground v.1.15,2013-03-23 12:19:00,
2013-03-23 08:24:00,24.0,21.2,30.06,WSW,249,0.0,2.0,89,0.00,,,0.00,Wunderground v.1.15,2013-03-23 12:24:00,
2013-03-23 08:30:00,24.7,21.9,30.06,WSW,249,0.0,2.0,89,0.00,,,0.00,Wunderground v.1.15,2013-03-23 12:30:00,
2013-03-23 08:35:00,25.4,22.6,30.07,WSW,249,0.0,2.0,89,0.00,,,0.00,Wunderground v.1.15,2013-03-23 12:35:00,
2013-03-23 08:41:00,26.2,23.1,30.07,WSW,249,0.0,2.0,88,0.00,,,0.00,Wunderground v.1.15,2013-03-23 12:41:00,
2013-03-23 08:46:00,26.8,23.7,30.07,WSW,249,0.0,2.0,88,0.00,,,0.00,Wunderground v.1.15,2013-03-23 12:46:00,
2013-03-23 08:52:00,27.2,23.6,30.07,WSW,249,0.0,2.0,86,0.00,,,0.00,Wunderground v.1.15,2013-03-23 12:52:00,
2013-03-23 08:58:00,27.6,23.4,30.07,WSW,249,0.0,2.0,84,0.00,,,0.00,Wunderground v.1.15,2013-03-23 12:58:00,
2013-03-23 09:03:00,28.0,23.5,30.08,WSW,249,0.0,2.0,83,0.00,,,0.00,Wunderground v.1.15,2013-03-23 13:03:00,
2013-03-23 09:09:00,28.6,23.5,30.08,WSW,249,0.0,2.0,81,0.00,,,0.00,Wunderground v.1.15,2013-03-23 13:09:00,
2013-03-23 09:14:00,29.1,23.7,30.08,WSW,249,0.0,2.0,80,0.00,,,0.00,Wunderground v.1.15,2013-03-23 13:14:00,
2013-03-23 09:20:00,29.7,23.7,30.08,WSW,249,0.0,2.0,78,0.00,,,0.00,Wunderground v.1.15,2013-03-23 13:20:00,
2013-03-23 09:25:00,30.2,23.9,30.08,WSW,249,0.0,2.0,77,0.00,,,0.00,Wunderground v.1.15,2013-03-23 13:25:00,
2013-03-23 09:31:00,30.8,23.5,30.08,WSW,249,0.0,2.0,74,0.00,,,0.00,Wunderground v.1.15,2013-03-23 13:31:00,
2013-03-23 09:36:00,31.5,24.5,30.08,WSW,249,0.0,2.0,75,0.00,,,0.00,Wunderground v.1.15,2013-03-23 13:36:00,
2013-03-23 09:42:00,32.4,25.4,30.08,WSW,249,0.0,2.0,75,0.00,,,0.00,Wunderground v.1.15,2013-03-23 13:42:00,
2013-03-23 09:47:00,33.0,25.9,30.08,WSW,249,0.0,2.0,75,0.00,,,0.00,Wunderground v.1.15,2013-03-23 13:47:00,
2013-03-23 09:53:00,33.3,25.6,30.08,WSW,249,0.0,2.0,73,0.00,,,0.00,Wunderground v.1.15,2013-03-23 13:53:00,
2013-03-23 09:59:00,33.5,25.4,30.08,WSW,249,0.0,2.0,72,0.00,,,0.00,Wunderground v.1.15,2013-03-23 13:59:00,
2013-03-23 10:05:00,33.7,25.6,30.08,WSW,248,0.0,2.0,72,0.00,,,0.00,Wunderground v.1.15,2013-03-23 14:05:00,
2013-03-23 10:11:00,34.0,25.6,30.08,WSW,248,0.0,2.0,71,0.00,,,0.00,Wunderground v.1.15,2013-03-23 14:11:00,
2013-03-23 10:17:00,34.2,26.1,30.08,WSW,248,0.0,2.0,72,0.00,,,0.00,Wunderground v.1.15,2013-03-23 14:17:00,
2013-03-23 10:22:00,34.4,24.9,30.08,WSW,248,0.0,2.0,68,0.00,,,0.00,Wunderground v.1.15,2013-03-23 14:22:00,
2013-03-23 10:28:00,34.7,24.9,30.07,WSW,248,0.0,2.0,67,0.00,,,0.00,Wunderground v.1.15,2013-03-23 14:28:00,
2013-03-23 10:33:00,35.1,24.1,30.08,WSW,249,0.0,2.0,64,0.00,,,0.00,Wunderground v.1.15,2013-03-23 14:33:00,
2013-03-23 10:39:00,35.7,24.3,30.08,WSW,249,0.0,2.0,63,0.00,,,0.00,Wunderground v.1.15,2013-03-23 14:39:00,
2013-03-23 10:44:00,36.0,23.8,30.08,WSW,241,1.0,3.0,61,0.00,,,0.00,Wunderground v.1.15,2013-03-23 14:44:00,
2013-03-23 10:49:00,36.0,23.4,30.08,West,280,2.0,4.0,60,0.00,,,0.00,Wunderground v.1.15,2013-03-23 14:49:00,
2013-03-23 10:55:00,36.4,24.2,30.08,West,274,2.0,3.0,61,0.00,,,0.00,Wunderground v.1.15,2013-03-23 14:55:00,
2013-03-23 11:00:00,36.8,24.2,30.08,NW,317,2.0,2.0,60,0.00,,,0.00,Wunderground v.1.15,2013-03-23 15:00:00,
2013-03-23 11:05:00,37.1,23.7,30.08,WNW,295,2.0,4.0,58,0.00,,,0.00,Wunderground v.1.15,2013-03-23 15:05:00,
2013-03-23 11:11:00,37.9,24.0,30.08,WNW,298,3.0,3.0,57,0.00,,,0.00,Wunderground v.1.15,2013-03-23 15:11:00,
2013-03-23 11:17:00,38.6,24.7,30.08,SW,227,1.0,5.0,57,0.00,,,0.00,Wunderground v.1.15,2013-03-23 15:17:00,
2013-03-23 11:22:00,38.9,24.9,30.08,West,278,1.0,3.0,57,0.00,,,0.00,Wunderground v.1.15,2013-03-23 15:22:00,
2013-03-23 11:27:00,39.3,25.3,30.08,WNW,284,2.0,4.0,57,0.00,,,0.00,Wunderground v.1.15,2013-03-23 15:27:00,
2013-03-23 11:33:00,39.6,25.2,30.08,West,277,2.0,9.0,56,0.00,,,0.00,Wunderground v.1.15,2013-03-23 15:33:00,
2013-03-23 11:38:00,39.6,25.6,30.08,WSW,245,3.0,9.0,57,0.00,,,0.00,Wunderground v.1.15,2013-03-23 15:38:00,
2013-03-23 11:44:00,39.5,24.7,30.07,WSW,237,3.0,7.0,55,0.00,,,0.00,Wunderground v.1.15,2013-03-23 15:44:00,
2013-03-23 11:49:00,39.3,24.5,30.07,SW,215,4.0,7.0,55,0.00,,,0.00,Wunderground v.1.15,2013-03-23 15:49:00,
2013-03-23 11:55:00,39.8,25.4,30.07,SW,215,3.0,6.0,56,0.00,,,0.00,Wunderground v.1.15,2013-03-23 15:55:00,
2013-03-23 12:00:00,40.0,25.1,30.07,West,261,3.0,4.0,55,0.00,,,0.00,Wunderground v.1.15,2013-03-23 16:00:00,
2013-03-23 12:05:00,40.5,26.0,30.07,WSW,258,3.0,5.0,56,0.00,,,0.00,Wunderground v.1.15,2013-03-23 16:05:00,
2013-03-23 12:11:00,40.8,25.9,30.06,WSW,248,4.0,4.0,55,0.00,,,0.00,Wunderground v.1.15,2013-03-23 16:11:00,
2013-03-23 12:17:00,41.6,26.2,30.06,West,271,4.0,9.0,54,0.00,,,0.00,Wunderground v.1.15,2013-03-23 16:17:00,
2013-03-23 12:22:00,41.7,25.8,30.06,West,277,4.0,4.0,53,0.00,,,0.00,Wunderground v.1.15,2013-03-23 16:22:00,
2013-03-23 12:27:00,41.9,25.5,30.07,NW,326,4.0,6.0,52,0.00,,,0.00,Wunderground v.1.15,2013-03-23 16:27:00,
2013-03-23 12:33:00,41.6,25.3,30.06,NNW,344,4.0,6.0,52,0.00,,,0.00,Wunderground v.1.15,2013-03-23 16:33:00,
2013-03-23 12:38:00,41.6,25.3,30.06,WNW,290,5.0,8.0,52,0.00,,,0.00,Wunderground v.1.15,2013-03-23 16:38:00,
2013-03-23 12:44:00,42.2,26.3,30.06,WNW,283,4.0,6.0,53,0.00,,,0.00,Wunderground v.1.15,2013-03-23 16:44:00,
2013-03-23 12:49:00,42.6,26.2,30.06,WSW,249,3.0,6.0,52,0.00,,,0.00,Wunderground v.1.15,2013-03-23 16:49:00,
2013-03-23 12:55:00,43.4,27.4,30.06,WSW,251,2.0,6.0,53,0.00,,,0.00,Wunderground v.1.15,2013-03-23 16:55:00,
2013-03-23 13:02:00,43.7,26.7,30.06,WNW,302,3.0,4.0,51,0.00,,,0.00,Wunderground v.1.15,2013-03-23 17:02:00,
2013-03-23 13:08:00,43.6,27.1,30.06,West,281,4.0,9.0,52,0.00,,,0.00,Wunderground v.1.15,2013-03-23 17:08:00,
2013-03-23 13:13:00,43.6,28.0,30.06,WNW,298,3.0,3.0,54,0.00,,,0.00,Wunderground v.1.15,2013-03-23 17:13:00,
2013-03-23 13:19:00,44.1,27.6,30.06,West,271,2.0,10.0,52,0.00,,,0.00,Wunderground v.1.15,2013-03-23 17:19:00,
2013-03-23 13:24:00,44.5,27.5,30.06,North,5,4.0,5.0,51,0.00,,,0.00,Wunderground v.1.15,2013-03-23 17:24:00,
2013-03-23 13:30:00,45.0,28.4,30.05,WSW,239,3.0,3.0,52,0.00,,,0.00,Wunderground v.1.15,2013-03-23 17:30:00,
2013-03-23 13:35:00,45.1,27.1,30.05,WNW,293,3.0,7.0,49,0.00,,,0.00,Wunderground v.1.15,2013-03-23 17:35:00,
2013-03-23 13:40:00,45.0,27.9,30.05,NW,323,5.0,7.0,51,0.00,,,0.00,Wunderground v.1.15,2013-03-23 17:40:00,
2013-03-23 13:45:00,44.6,26.6,30.05,NNW,328,6.0,8.0,49,0.00,,,0.00,Wunderground v.1.15,2013-03-23 17:45:00,
2013-03-23 13:52:00,44.5,27.5,30.04,NNW,335,5.0,10.0,51,0.00,,,0.00,Wunderground v.1.15,2013-03-23 17:52:00,
2013-03-23 13:57:00,44.5,27.5,30.05,West,269,3.0,10.0,51,0.00,,,0.00,Wunderground v.1.15,2013-03-23 17:57:00,
2013-03-23 14:03:00,45.0,27.5,30.05,NNW,330,3.0,9.0,50,0.00,,,0.00,Wunderground v.1.15,2013-03-23 18:03:00,
2013-03-23 14:09:00,44.8,26.3,30.05,WNW,303,7.0,12.0,48,0.00,,,0.00,Wunderground v.1.15,2013-03-23 18:09:00,
2013-03-23 14:15:00,45.0,27.0,30.04,NW,316,5.0,8.0,49,0.00,,,0.00,Wunderground v.1.15,2013-03-23 18:15:00,
2013-03-23 14:20:00,45.2,25.6,30.04,WNW,296,4.0,8.0,46,0.00,,,0.00,Wunderground v.1.15,2013-03-23 18:20:00,
2013-03-23 14:25:00,45.1,25.5,30.04,North,355,5.0,8.0,46,0.00,,,0.00,Wunderground v.1.15,2013-03-23 18:25:00,
2013-03-23 14:30:00,45.1,25.5,30.04,West,265,4.0,9.0,46,0.00,,,0.00,Wunderground v.1.15,2013-03-23 18:30:00,
2013-03-23 14:35:00,45.2,25.6,30.04,WSW,248,4.0,11.0,46,0.00,,,0.00,Wunderground v.1.15,2013-03-23 18:35:00,
2013-03-23 14:41:00,45.6,25.5,30.04,NNW,342,4.0,4.0,45,0.00,,,0.00,Wunderground v.1.15,2013-03-23 18:41:00,
2013-03-23 14:47:00,45.8,26.7,30.03,NW,317,4.0,5.0,47,0.00,,,0.00,Wunderground v.1.15,2013-03-23 18:47:00,
2013-03-23 14:53:00,46.0,26.4,30.03,WSW,242,4.0,6.0,46,0.00,,,0.00,Wunderground v.1.15,2013-03-23 18:53:00,
2013-03-23 14:58:00,46.3,26.6,30.03,NW,319,4.0,7.0,46,0.00,,,0.00,Wunderground v.1.15,2013-03-23 18:58:00,
2013-03-23 15:04:00,46.1,27.5,30.03,NNE,26,3.0,4.0,48,0.00,,,0.00,Wunderground v.1.15,2013-03-23 19:04:00,
2013-03-23 15:09:00,46.4,26.7,30.03,NE,43,4.0,4.0,46,0.00,,,0.00,Wunderground v.1.15,2013-03-23 19:09:00,
2013-03-23 15:14:00,46.3,26.6,30.03,NNW,333,4.0,5.0,46,0.00,,,0.00,Wunderground v.1.15,2013-03-23 19:14:00,
2013-03-23 15:20:00,46.6,26.9,30.03,NW,320,3.0,3.0,46,0.00,,,0.00,Wunderground v.1.15,2013-03-23 19:20:00,
2013-03-23 15:25:00,46.6,26.9,30.03,WNW,303,5.0,9.0,46,0.00,,,0.00,Wunderground v.1.15,2013-03-23 19:25:00,
2013-03-23 15:33:00,46.8,26.6,30.03,WNW,290,4.0,6.0,45,0.00,,,0.00,Wunderground v.1.15,2013-03-23 19:33:00,
2013-03-23 15:38:00,47.2,28.0,30.03,WSW,240,3.0,6.0,47,0.00,,,0.00,Wunderground v.1.15,2013-03-23 19:38:00,
2013-03-23 15:44:00,47.7,27.4,30.03,NNW,339,2.0,5.0,45,0.00,,,0.00,Wunderground v.1.15,2013-03-23 19:44:00,
2013-03-23 15:50:00,47.5,27.7,30.03,North,11,2.0,2.0,46,0.00,,,0.00,Wunderground v.1.15,2013-03-23 19:50:00,
2013-03-23 15:56:00,47.4,26.0,30.03,North,349,3.0,7.0,43,0.00,,,0.00,Wunderground v.1.15,2013-03-23 19:56:00,
2013-03-23 16:01:00,47.3,27.5,30.03,North,351,4.0,4.0,46,0.00,,,0.00,Wunderground v.1.15,2013-03-23 20:01:00,
2013-03-23 16:07:00,46.7,26.5,30.03,WNW,288,3.0,4.0,45,0.00,,,0.00,Wunderground v.1.15,2013-03-23 20:07:00,
2013-03-23 16:13:00,47.2,26.9,30.03,NW,319,2.0,5.0,45,0.00,,,0.00,Wunderground v.1.15,2013-03-23 20:13:00,
2013-03-23 16:19:00,47.2,26.4,30.03,NNW,331,4.0,11.0,44,0.00,,,0.00,Wunderground v.1.15,2013-03-23 20:19:00,
2013-03-23 16:24:00,46.8,25.5,30.02,NNE,25,4.0,6.0,43,0.00,,,0.00,Wunderground v.1.15,2013-03-23 20:24:00,
2013-03-23 16:30:00,46.3,27.2,30.02,NW,317,3.0,6.0,47,0.00,,,0.00,Wunderground v.1.15,2013-03-23 20:30:00,
2013-03-23 16:35:00,46.8,28.1,30.03,North,360,3.0,10.0,48,0.00,,,0.00,Wunderground v.1.15,2013-03-23 20:35:00,
2013-03-23 16:40:00,47.1,27.4,30.02,North,350,3.0,3.0,46,0.00,,,0.00,Wunderground v.1.15,2013-03-23 20:40:00,
2013-03-23 16:46:00,47.2,26.9,30.02,NE,37,2.0,6.0,45,0.00,,,0.00,Wunderground v.1.15,2013-03-23 20:46:00,
2013-03-23 16:52:00,47.3,27.0,30.02,North,9,2.0,2.0,45,0.00,,,0.00,Wunderground v.1.15,2013-03-23 20:52:00,
2013-03-23 16:58:00,47.2,26.9,30.01,NE,54,2.0,9.0,45,0.00,,,0.00,Wunderground v.1.15,2013-03-23 20:58:00,
2013-03-23 17:04:00,47.2,26.9,30.01,North,355,3.0,5.0,45,0.00,,,0.00,Wunderground v.1.15,2013-03-23 21:04:00,
2013-03-23 17:09:00,47.3,25.9,30.01,WNW,288,3.0,9.0,43,0.00,,,0.00,Wunderground v.1.15,2013-03-23 21:09:00,
2013-03-23 17:15:00,46.8,26.0,30.01,NE,35,4.0,4.0,44,0.00,,,0.00,Wunderground v.1.15,2013-03-23 21:15:00,
2013-03-23 17:20:00,46.4,25.6,30.01,NNW,345,3.0,3.0,44,0.00,,,0.00,Wunderground v.1.15,2013-03-23 21:20:00,
2013-03-23 17:25:00,46.1,24.8,30.01,SW,221,2.0,4.0,43,0.00,,,0.00,Wunderground v.1.15,2013-03-23 21:25:00,
2013-03-23 17:32:00,46.6,25.8,30.01,NNW,344,1.0,2.0,44,0.00,,,0.00,Wunderground v.1.15,2013-03-23 21:32:00,
2013-03-23 17:37:00,46.7,27.0,30.01,NNE,22,1.0,6.0,46,0.00,,,0.00,Wunderground v.1.15,2013-03-23 21:37:00,
2013-03-23 17:43:00,46.4,26.7,30.01,North,355,2.0,2.0,46,0.00,,,0.00,Wunderground v.1.15,2013-03-23 21:43:00,
2013-03-23 17:49:00,46.3,26.6,30.01,NE,36,1.0,2.0,46,0.00,,,0.00,Wunderground v.1.15,2013-03-23 21:49:00,
2013-03-23 17:54:00,46.0,26.9,30.00,NE,35,1.0,5.0,47,0.00,,,0.00,Wunderground v.1.15,2013-03-23 21:54:00,
2013-03-23 18:00:00,45.9,26.8,30.00,North,355,2.0,5.0,47,0.00,,,0.00,Wunderground v.1.15,2013-03-23 22:00:00,
2013-03-23 18:05:00,45.7,26.1,30.00,NNE,12,1.0,5.0,46,0.00,,,0.00,Wunderground v.1.15,2013-03-23 22:05:00,
2013-03-23 18:12:00,45.4,26.3,30.00,NW,313,2.0,2.0,47,0.00,,,0.00,Wunderground v.1.15,2013-03-23 22:12:00,
2013-03-23 18:18:00,45.1,26.1,30.00,NW,312,1.0,3.0,47,0.00,,,0.00,Wunderground v.1.15,2013-03-23 22:18:00,
2013-03-23 18:24:00,44.9,25.9,30.00,NNW,344,2.0,3.0,47,0.00,,,0.00,Wunderground v.1.15,2013-03-23 22:24:00,
2013-03-23 18:29:00,44.6,25.1,30.00,North,360,1.0,3.0,46,0.00,,,0.00,Wunderground v.1.15,2013-03-23 22:29:00,
2013-03-23 18:35:00,44.4,25.4,30.00,North,360,0.0,2.0,47,0.00,,,0.00,Wunderground v.1.15,2013-03-23 22:35:00,
2013-03-23 18:40:00,44.1,25.6,30.00,NE,44,1.0,4.0,48,0.00,,,0.00,Wunderground v.1.15,2013-03-23 22:40:00,
2013-03-23 18:46:00,43.7,24.8,30.00,North,355,3.0,4.0,47,0.00,,,0.00,Wunderground v.1.15,2013-03-23 22:46:00,
2013-03-23 18:52:00,43.4,25.5,29.99,North,355,3.0,5.0,49,0.00,,,0.00,Wunderground v.1.15,2013-03-23 22:52:00,
2013-03-23 18:58:00,43.1,25.7,29.99,NNE,15,3.0,5.0,50,0.00,,,0.00,Wunderground v.1.15,2013-03-23 22:58:00,
2013-03-23 19:03:00,42.9,25.0,29.99,NNE,33,2.0,3.0,49,0.00,,,0.00,Wunderground v.1.15,2013-03-23 23:03:00,
2013-03-23 19:09:00,42.7,24.8,29.99,ENE,59,2.0,6.0,49,0.00,,,0.00,Wunderground v.1.15,2013-03-23 23:09:00,
2013-03-23 19:14:00,42.5,24.7,29.99,NNE,28,3.0,4.0,49,0.00,,,0.00,Wunderground v.1.15,2013-03-23 23:14:00,
2013-03-23 19:19:00,42.3,25.0,30.00,North,5,3.0,4.0,50,0.00,,,0.00,Wunderground v.1.15,2013-03-23 23:19:00,
2013-03-23 19:25:00,42.1,25.3,30.00,NNE,32,2.0,3.0,51,0.00,,,0.00,Wunderground v.1.15,2013-03-23 23:25:00,
2013-03-23 19:30:00,41.7,25.4,30.00,North,9,1.0,2.0,52,0.00,,,0.00,Wunderground v.1.15,2013-03-23 23:30:00,
2013-03-23 19:35:00,41.4,25.1,30.01,NNE,28,1.0,2.0,52,0.00,,,0.00,Wunderground v.1.15,2013-03-23 23:35:00,
2013-03-23 19:41:00,41.0,25.2,30.01,NNE,28,1.0,2.0,53,0.00,,,0.00,Wunderground v.1.15,2013-03-23 23:41:00,
2013-03-23 19:47:00,40.6,24.8,30.01,NNE,27,0.0,2.0,53,0.00,,,0.00,Wunderground v.1.15,2013-03-23 23:47:00,
2013-03-23 19:52:00,40.2,24.9,30.00,NNE,27,0.0,2.0,54,0.00,,,0.00,Wunderground v.1.15,2013-03-23 23:52:00,
2013-03-23 19:58:00,39.8,24.9,30.00,NNE,27,0.0,2.0,55,0.00,,,0.00,Wunderground v.1.15,2013-03-23 23:58:00,
2013-03-23 20:04:00,39.4,24.6,30.00,NNE,27,0.0,2.0,55,0.00,,,0.00,Wunderground v.1.15,2013-03-24 00:04:00,
2013-03-23 20:10:00,39.0,24.6,30.00,NNE,27,0.0,2.0,56,0.00,,,0.00,Wunderground v.1.15,2013-03-24 00:10:00,
2013-03-23 20:15:00,38.6,24.7,30.00,NNE,27,0.0,2.0,57,0.00,,,0.00,Wunderground v.1.15,2013-03-24 00:15:00,
2013-03-23 20:20:00,38.2,24.3,30.00,NNE,28,0.0,2.0,57,0.00,,,0.00,Wunderground v.1.15,2013-03-24 00:20:00,
2013-03-23 20:26:00,37.7,24.2,30.01,NNE,26,0.0,2.0,58,0.00,,,0.00,Wunderground v.1.15,2013-03-24 00:26:00,
2013-03-23 20:32:00,37.2,24.2,30.01,NNE,25,0.0,2.0,59,0.00,,,0.00,Wunderground v.1.15,2013-03-24 00:32:00,
2013-03-23 20:38:00,37.1,24.5,30.00,NNE,24,1.0,4.0,60,0.00,,,0.00,Wunderground v.1.15,2013-03-24 00:38:00,
2013-03-23 20:43:00,37.2,24.6,30.00,NNE,24,1.0,2.0,60,0.00,,,0.00,Wunderground v.1.15,2013-03-24 00:43:00,
2013-03-23 20:49:00,37.2,24.6,30.01,NNE,28,1.0,2.0,60,0.00,,,0.00,Wunderground v.1.15,2013-03-24 00:49:00,
2013-03-23 20:54:00,37.1,24.5,30.01,NNE,28,0.0,2.0,60,0.00,,,0.00,Wunderground v.1.15,2013-03-24 00:54:00,
2013-03-23 21:00:00,37.0,24.4,30.01,NNE,12,0.0,2.0,60,0.00,,,0.00,Wunderground v.1.15,2013-03-24 01:00:00,
2013-03-23 21:05:00,36.8,24.2,30.02,NNE,12,0.0,2.0,60,0.00,,,0.00,Wunderground v.1.15,2013-03-24 01:05:00,
2013-03-23 21:10:00,36.6,24.4,30.01,NNE,12,0.0,2.0,61,0.00,,,0.00,Wunderground v.1.15,2013-03-24 01:10:00,
2013-03-23 21:16:00,36.2,24.0,30.01,NNE,12,0.0,2.0,61,0.00,,,0.00,Wunderground v.1.15,2013-03-24 01:16:00,
2013-03-23 21:21:00,35.9,24.1,30.01,NNE,12,0.0,2.0,62,0.00,,,0.00,Wunderground v.1.15,2013-03-24 01:21:00,
2013-03-23 21:27:00,35.5,24.1,30.01,NNE,18,0.0,3.0,63,0.00,,,0.00,Wunderground v.1.15,2013-03-24 01:27:00,
2013-03-23 21:32:00,35.2,23.9,30.01,NNE,18,1.0,2.0,63,0.00,,,0.00,Wunderground v.1.15,2013-03-24 01:32:00,
2013-03-23 21:37:00,35.1,23.8,30.01,NNE,22,1.0,2.0,63,0.00,,,0.00,Wunderground v.1.15,2013-03-24 01:37:00,
2013-03-23 21:43:00,35.1,24.1,30.01,NNE,22,1.0,2.0,64,0.00,,,0.00,Wunderground v.1.15,2013-03-24 01:43:00,
2013-03-23 21:48:00,35.0,24.0,30.02,NNE,25,0.0,2.0,64,0.00,,,0.00,Wunderground v.1.15,2013-03-24 01:48:00,
2013-03-23 21:54:00,35.1,24.1,30.01,NNE,31,1.0,3.0,64,0.00,,,0.00,Wunderground v.1.15,2013-03-24 01:54:00,
2013-03-23 21:59:00,35.3,24.3,30.01,NNE,32,1.0,4.0,64,0.00,,,0.00,Wunderground v.1.15,2013-03-24 01:59:00,
2013-03-23 22:05:00,35.6,24.6,30.00,NNE,32,2.0,5.0,64,0.00,,,0.00,Wunderground v.1.15,2013-03-24 02:05:00,
2013-03-23 22:10:00,35.6,24.6,30.00,NE,48,2.0,2.0,64,0.00,,,0.00,Wunderground v.1.15,2013-03-24 02:10:00,
2013-03-23 22:15:00,35.6,25.0,30.00,NE,38,2.0,6.0,65,0.00,,,0.00,Wunderground v.1.15,2013-03-24 02:15:00,
2013-03-23 22:21:00,35.5,24.9,29.99,NNE,28,2.0,2.0,65,0.00,,,0.00,Wunderground v.1.15,2013-03-24 02:21:00,
2013-03-23 22:27:00,35.3,24.7,30.00,NNE,32,2.0,6.0,65,0.00,,,0.00,Wunderground v.1.15,2013-03-24 02:27:00,
2013-03-23 22:33:00,35.3,25.1,29.99,NE,52,3.0,6.0,66,0.00,,,0.00,Wunderground v.1.15,2013-03-24 02:33:00,
2013-03-23 22:38:00,35.2,25.3,29.98,NNE,21,3.0,6.0,67,0.00,,,0.00,Wunderground v.1.15,2013-03-24 02:38:00,
2013-03-23 22:43:00,35.0,25.5,29.98,NE,55,3.0,5.0,68,0.00,,,0.00,Wunderground v.1.15,2013-03-24 02:43:00,
2013-03-23 22:49:00,35.0,25.9,29.98,NE,56,4.0,5.0,69,0.00,,,0.00,Wunderground v.1.15,2013-03-24 02:49:00,
2013-03-23 22:54:00,34.8,25.7,29.98,NE,50,4.0,6.0,69,0.00,,,0.00,Wunderground v.1.15,2013-03-24 02:54:00,
2013-03-23 22:59:00,34.6,25.8,29.98,ENE,60,4.0,7.0,70,0.00,,,0.00,Wunderground v.1.15,2013-03-24 02:59:00,
2013-03-23 23:05:00,34.4,25.6,29.98,NE,52,5.0,7.0,70,0.00,,,0.00,Wunderground v.1.15,2013-03-24 03:05:00,
2013-03-23 23:12:00,34.3,25.9,29.98,NE,36,5.0,10.0,71,0.00,,,0.00,Wunderground v.1.15,2013-03-24 03:12:00,
2013-03-23 23:18:00,34.1,26.0,29.97,NE,38,5.0,11.0,72,0.00,,,0.00,Wunderground v.1.15,2013-03-24 03:18:00,
2013-03-23 23:24:00,33.9,25.8,29.97,NNE,28,5.0,8.0,72,0.00,,,0.00,Wunderground v.1.15,2013-03-24 03:24:00,
2013-03-23 23:29:00,33.7,26.0,29.96,NE,49,5.0,8.0,73,0.00,,,0.00,Wunderground v.1.15,2013-03-24 03:29:00,
2013-03-23 23:34:00,33.5,25.8,29.97,ENE,63,5.0,11.0,73,0.00,,,0.00,Wunderground v.1.15,2013-03-24 03:34:00,
2013-03-23 23:39:00,33.3,25.9,29.97,NE,50,5.0,11.0,74,0.00,,,0.00,Wunderground v.1.15,2013-03-24 03:39:00,
2013-03-23 23:45:00,33.1,25.7,29.97,NE,46,5.0,10.0,74,0.00,,,0.00,Wunderground v.1.15,2013-03-24 03:45:00,
2013-03-23 23:50:00,32.9,25.5,29.96,NE,53,5.0,5.0,74,0.00,,,0.00,Wunderground v.1.15,2013-03-24 03:50:00,
2013-03-23 23:55:00,32.6,25.6,29.96,NE,42,5.0,10.0,75,0.00,,,0.00,Wunderground v.1.15,2013-03-24 03:55:00,